sensor_id;sensor_type;location;lat;lon;timestamp;pressure;altitude;pressure_sealevel;temperature;humidity
10014;BME280;45684;48.358;10.746;2023-02-03T00:01:34;97334.41;;;4.91;100.00
10014;BME280;45684;48.358;10.746;2023-02-03T00:04:03;97342.97;;;4.93;100.00
10014;BME280;45684;48.358;10.746;2023-02-03T00:06:32;97322.59;;;4.92;100.00
10014;BME280;45684;48.358;10.746;2023-02-03T00:09:00;97335.19;;;4.92;100.00
10014;BME280;45684;48.358;10.746;2023-02-03T00:11:29;97327.47;;;4.95;100.00
10014;BME280;45684;48.358;10.746;2023-02-03T00:13:57;97326.34;;;4.91;100.00
10014;BME280;45684;48.358;10.746;2023-02-03T00:16:25;97324.03;;;5.00;100.00
10014;BME280;45684;48.358;10.746;2023-02-03T00:18:53;97320.25;;;4.96;100.00
10014;BME280;45684;48.358;10.746;2023-02-03T00:21:22;97316.50;;;4.97;100.00
10014;BME280;45684;48.358;10.746;2023-02-03T00:23:50;97314.06;;;4.95;100.00
10014;BME280;45684;48.358;10.746;2023-02-03T00:26:18;97322.66;;;4.97;100.00
10014;BME280;45684;48.358;10.746;2023-02-03T00:28:46;97325.06;;;4.99;100.00
10014;BME280;45684;48.358;10.746;2023-02-03T00:31:15;97327.47;;;4.95;100.00
10014;BME280;45684;48.358;10.746;2023-02-03T00:33:44;97324.28;;;4.98;100.00
10014;BME280;45684;48.358;10.746;2023-02-03T00:36:13;97320.78;;;4.98;100.00
10014;BME280;45684;48.358;10.746;2023-02-03T00:38:42;97323.25;;;4.99;100.00
10014;BME280;45684;48.358;10.746;2023-02-03T00:41:10;97309.56;;;5.01;100.00
10014;BME280;45684;48.358;10.746;2023-02-03T00:43:38;97314.13;;;5.00;100.00
10014;BME280;45684;48.358;10.746;2023-02-03T00:46:06;97318.91;;;4.98;100.00
10014;BME280;45684;48.358;10.746;2023-02-03T00:48:34;97317.63;;;5.01;100.00
10014;BME280;45684;48.358;10.746;2023-02-03T00:51:02;97317.94;;;5.04;100.00
10014;BME280;45684;48.358;10.746;2023-02-03T00:53:30;97325.41;;;5.02;100.00
10014;BME280;45684;48.358;10.746;2023-02-03T00:55:59;97320.56;;;4.99;100.00
10014;BME280;45684;48.358;10.746;2023-02-03T00:58:27;97327.28;;;5.02;100.00
10014;BME280;45684;48.358;10.746;2023-02-03T01:00:55;97329.16;;;5.01;100.00
10014;BME280;45684;48.358;10.746;2023-02-03T01:03:23;97342.06;;;5.04;100.00
10014;BME280;45684;48.358;10.746;2023-02-03T01:05:51;97344.72;;;5.04;100.00
10014;BME280;45684;48.358;10.746;2023-02-03T01:08:19;97344.72;;;5.04;100.00
10014;BME280;45684;48.358;10.746;2023-02-03T01:10:49;97352.25;;;5.07;100.00
10014;BME280;45684;48.358;10.746;2023-02-03T01:13:18;97347.97;;;5.06;100.00
10014;BME280;45684;48.358;10.746;2023-02-03T01:15:46;97345.84;;;5.08;100.00
10014;BME280;45684;48.358;10.746;2023-02-03T01:18:14;97345.53;;;5.05;100.00
10014;BME280;45684;48.358;10.746;2023-02-03T01:20:43;97350.63;;;5.06;100.00
10014;BME280;45684;48.358;10.746;2023-02-03T01:23:11;97348.53;;;5.08;100.00
10014;BME280;45684;48.358;10.746;2023-02-03T01:25:38;97353.06;;;5.08;100.00
10014;BME280;45684;48.358;10.746;2023-02-03T01:28:06;97351.75;;;5.10;100.00
10014;BME280;45684;48.358;10.746;2023-02-03T01:30:35;97351.44;;;5.07;100.00
10014;BME280;45684;48.358;10.746;2023-02-03T01:33:04;97350.63;;;5.06;100.00
10014;BME280;45684;48.358;10.746;2023-02-03T01:35:33;97351.22;;;5.08;100.00
10014;BME280;45684;48.358;10.746;2023-02-03T01:38:01;97345.84;;;5.08;100.00
10014;BME280;45684;48.358;10.746;2023-02-03T01:40:30;97345.00;;;5.08;100.00
10014;BME280;45684;48.358;10.746;2023-02-03T01:42:58;97339.38;;;5.04;100.00
10014;BME280;45684;48.358;10.746;2023-02-03T01:45:26;97330.25;;;5.05;100.00
10014;BME280;45684;48.358;10.746;2023-02-03T01:47:57;97313.06;;;5.01;100.00
10014;BME280;45684;48.358;10.746;2023-02-03T01:50:30;97316.28;;;5.03;100.00
10014;BME280;45684;48.358;10.746;2023-02-03T01:53:01;97312.25;;;5.01;100.00
10014;BME280;45684;48.358;10.746;2023-02-03T01:55:33;97314.34;;;4.99;100.00
10014;BME280;45684;48.358;10.746;2023-02-03T01:58:06;97326.19;;;5.03;100.00
10014;BME280;45684;48.358;10.746;2023-02-03T02:00:35;97325.91;;;4.99;100.00
10014;BME280;45684;48.358;10.746;2023-02-03T02:03:05;97322.16;;;5.00;100.00
10014;BME280;45684;48.358;10.746;2023-02-03T02:05:37;97312.50;;;4.99;100.00
10014;BME280;45684;48.358;10.746;2023-02-03T02:08:10;97310.38;;;5.01;100.00
10014;BME280;45684;48.358;10.746;2023-02-03T02:10:39;97311.94;;;4.97;100.00
10014;BME280;45684;48.358;10.746;2023-02-03T02:13:07;97299.91;;;5.00;100.00
10014;BME280;45684;48.358;10.746;2023-02-03T02:15:42;97298.28;;;4.99;100.00
10014;BME280;45684;48.358;10.746;2023-02-03T02:18:23;97300.97;;;4.99;100.00
10014;BME280;45684;48.358;10.746;2023-02-03T02:24:51;97311.44;;;5.00;100.00
10014;BME280;45684;48.358;10.746;2023-02-03T02:27:39;97317.31;;;4.97;100.00
10014;BME280;45684;48.358;10.746;2023-02-03T02:30:49;97319.50;;;5.00;100.00
10014;BME280;45684;48.358;10.746;2023-02-03T02:33:32;97305.81;;;5.02;100.00
10014;BME280;45684;48.358;10.746;2023-02-03T02:36:09;97311.94;;;4.97;100.00
10014;BME280;45684;48.358;10.746;2023-02-03T02:38:47;97309.25;;;4.97;100.00
10014;BME280;45684;48.358;10.746;2023-02-03T02:41:19;97301.22;;;4.97;100.00
10014;BME280;45684;48.358;10.746;2023-02-03T02:43:59;97295.84;;;4.97;100.00
10014;BME280;45684;48.358;10.746;2023-02-03T02:46:32;97302.28;;;4.96;100.00
10014;BME280;45684;48.358;10.746;2023-02-03T02:49:08;97283.84;;;5.00;100.00
10014;BME280;45684;48.358;10.746;2023-02-03T02:51:40;97279.78;;;4.97;100.00
10014;BME280;45684;48.358;10.746;2023-02-03T02:54:12;97295.84;;;4.97;100.00
10014;BME280;45684;48.358;10.746;2023-02-03T02:56:44;97292.09;;;4.98;100.00
10014;BME280;45684;48.358;10.746;2023-02-03T02:59:13;97296.44;;;4.99;100.00
10014;BME280;45684;48.358;10.746;2023-02-03T03:01:41;97290.75;;;4.96;100.00
10014;BME280;45684;48.358;10.746;2023-02-03T03:04:14;97288.31;;;4.94;100.00
10014;BME280;45684;48.358;10.746;2023-02-03T03:06:47;97272.81;;;4.96;100.00
10014;BME280;45684;48.358;10.746;2023-02-03T03:09:18;97265.81;;;4.95;100.00
10014;BME280;45684;48.358;10.746;2023-02-03T03:11:49;97269.06;;;4.97;100.00
10014;BME280;45684;48.358;10.746;2023-02-03T03:14:19;97272.31;;;4.99;100.00
10014;BME280;45684;48.358;10.746;2023-02-03T03:16:53;97278.97;;;4.97;100.00
10014;BME280;45684;48.358;10.746;2023-02-03T03:19:27;97288.38;;;4.99;100.00
10014;BME280;45684;48.358;10.746;2023-02-03T03:22:00;97295.84;;;4.97;100.00
10014;BME280;45684;48.358;10.746;2023-02-03T03:24:32;97295.06;;;4.97;100.00
10014;BME280;45684;48.358;10.746;2023-02-03T03:27:05;97296.66;;;4.98;100.00
10014;BME280;45684;48.358;10.746;2023-02-03T03:29:39;97278.97;;;4.97;100.00
10014;BME280;45684;48.358;10.746;2023-02-03T03:32:09;97285.13;;;4.97;100.00
10014;BME280;45684;48.358;10.746;2023-02-03T03:34:40;97293.75;;;4.99;100.00
10014;BME280;45684;48.358;10.746;2023-02-03T03:37:11;97296.47;;;5.04;100.00
10014;BME280;45684;48.358;10.746;2023-02-03T03:39:47;97284.38;;;5.02;100.00
10014;BME280;45684;48.358;10.746;2023-02-03T03:42:22;97269.09;;;5.02;100.00
10014;BME280;45684;48.358;10.746;2023-02-03T03:44:56;97279.78;;;4.97;100.00
10014;BME280;45684;48.358;10.746;2023-02-03T03:47:31;97269.06;;;4.97;100.00
10014;BME280;45684;48.358;10.746;2023-02-03T03:50:05;97272.81;;;4.96;100.00
10014;BME280;45684;48.358;10.746;2023-02-03T03:52:35;97275.00;;;4.99;100.00
10014;BME280;45684;48.358;10.746;2023-02-03T03:55:08;97273.13;;;5.00;100.00
10014;BME280;45684;48.358;10.746;2023-02-03T03:57:40;97292.91;;;4.99;100.00
10014;BME280;45684;48.358;10.746;2023-02-03T04:00:13;97285.50;;;5.06;100.00
10014;BME280;45684;48.358;10.746;2023-02-03T04:02:44;97282.28;;;5.04;100.00
10014;BME280;45684;48.358;10.746;2023-02-03T04:05:16;97278.53;;;5.05;100.00
10014;BME280;45684;48.358;10.746;2023-02-03T04:07:45;97277.72;;;5.04;100.00
10014;BME280;45684;48.358;10.746;2023-02-03T04:10:21;97287.38;;;5.05;100.00
10014;BME280;45684;48.358;10.746;2023-02-03T04:12:52;97284.94;;;5.04;100.00
10014;BME280;45684;48.358;10.746;2023-02-03T04:15:20;97300.47;;;5.02;100.00
10014;BME280;45684;48.358;10.746;2023-02-03T04:17:48;97322.47;;;5.04;100.00
10014;BME280;45684;48.358;10.746;2023-02-03T04:20:18;97323.28;;;5.04;100.00
10014;BME280;45684;48.358;10.746;2023-02-03T04:22:45;97313.59;;;5.03;100.00
10014;BME280;45684;48.358;10.746;2023-02-03T04:25:14;97317.63;;;5.01;100.00
10014;BME280;45684;48.358;10.746;2023-02-03T04:27:42;97323.03;;;5.06;100.00
10014;BME280;45684;48.358;10.746;2023-02-03T04:30:11;97320.28;;;5.01;100.00
10014;BME280;45684;48.358;10.746;2023-02-03T04:32:39;97327.00;;;5.03;100.00
10014;BME280;45684;48.358;10.746;2023-02-03T04:35:08;97320.59;;;5.04;100.00
10014;BME280;45684;48.358;10.746;2023-02-03T04:37:37;97329.44;;;5.05;100.00
10014;BME280;45684;48.358;10.746;2023-02-03T04:40:06;97320.28;;;5.01;100.00
10014;BME280;45684;48.358;10.746;2023-02-03T04:42:35;97327.00;;;5.03;100.00
10014;BME280;45684;48.358;10.746;2023-02-03T04:45:04;97316.84;;;5.05;100.00
10014;BME280;45684;48.358;10.746;2023-02-03T04:47:32;97312.25;;;5.01;100.00
10014;BME280;45684;48.358;10.746;2023-02-03T04:50:00;97304.22;;;5.01;100.00
10014;BME280;45684;48.358;10.746;2023-02-03T04:52:28;97309.88;;;5.04;100.00
10014;BME280;45684;48.358;10.746;2023-02-03T04:54:58;97319.22;;;5.02;100.00
10014;BME280;45684;48.358;10.746;2023-02-03T04:57:26;97308.81;;;5.05;100.00
10014;BME280;45684;48.358;10.746;2023-02-03T04:59:53;97310.63;;;5.00;100.00
10014;BME280;45684;48.358;10.746;2023-02-03T05:02:21;97308.00;;;5.05;100.00
10014;BME280;45684;48.358;10.746;2023-02-03T05:04:49;97313.06;;;5.01;100.00
10014;BME280;45684;48.358;10.746;2023-02-03T05:07:17;97307.38;;;4.98;100.00
10014;BME280;45684;48.358;10.746;2023-02-03T05:09:45;97317.88;;;4.99;100.00
10014;BME280;45684;48.358;10.746;2023-02-03T05:12:14;97319.50;;;5.00;100.00
10014;BME280;45684;48.358;10.746;2023-02-03T05:14:42;97309.25;;;4.97;100.00
10014;BME280;45684;48.358;10.746;2023-02-03T05:17:10;97302.34;;;5.01;100.00
10014;BME280;45684;48.358;10.746;2023-02-03T05:19:38;97290.00;;;5.00;100.00
10014;BME280;45684;48.358;10.746;2023-02-03T05:22:07;97277.09;;;4.97;100.00
10014;BME280;45684;48.358;10.746;2023-02-03T05:24:36;97283.84;;;5.00;100.00
10014;BME280;45684;48.358;10.746;2023-02-03T05:27:04;97272.31;;;4.99;100.00
10014;BME280;45684;48.358;10.746;2023-02-03T05:29:33;97275.53;;;5.01;100.00
10014;BME280;45684;48.358;10.746;2023-02-03T05:32:01;97261.81;;;4.98;100.00
10014;BME280;45684;48.358;10.746;2023-02-03T05:34:29;97249.47;;;4.97;100.00
10014;BME280;45684;48.358;10.746;2023-02-03T05:36:57;97273.88;;;4.95;100.00
10014;BME280;45684;48.358;10.746;2023-02-03T05:39:26;97270.94;;;4.97;100.00
10014;BME280;45684;48.358;10.746;2023-02-03T05:41:54;97281.16;;;5.00;100.00
10014;BME280;45684;48.358;10.746;2023-02-03T05:44:25;97285.94;;;4.98;100.00
10014;BME280;45684;48.358;10.746;2023-02-03T05:46:57;97289.75;;;5.02;100.00
10014;BME280;45684;48.358;10.746;2023-02-03T05:49:25;97277.94;;;5.03;100.00
10014;BME280;45684;48.358;10.746;2023-02-03T05:51:54;97276.91;;;5.04;100.00
10014;BME280;45684;48.358;10.746;2023-02-03T05:54:22;97291.63;;;5.01;100.00
10014;BME280;45684;48.358;10.746;2023-02-03T05:56:50;97277.66;;;4.99;100.00
10014;BME280;45684;48.358;10.746;2023-02-03T05:59:19;97273.91;;;5.00;100.00
10014;BME280;45684;48.358;10.746;2023-02-03T06:01:47;97287.88;;;5.02;100.00
10014;BME280;45684;48.358;10.746;2023-02-03T06:04:16;97290.59;;;5.07;100.00
10014;BME280;45684;48.358;10.746;2023-02-03T06:06:44;97285.75;;;5.04;100.00
10014;BME280;45684;48.358;10.746;2023-02-03T06:09:13;97289.47;;;5.03;100.00
10014;BME280;45684;48.358;10.746;2023-02-03T06:11:41;97284.38;;;5.02;100.00
10014;BME280;45684;48.358;10.746;2023-02-03T06:14:09;97286.75;;;4.98;100.00
10014;BME280;45684;48.358;10.746;2023-02-03T06:16:37;97276.56;;;4.95;100.00
10014;BME280;45684;48.358;10.746;2023-02-03T06:19:05;97292.06;;;4.93;100.00
10014;BME280;45684;48.358;10.746;2023-02-03T06:21:34;97293.66;;;4.94;100.00
10014;BME280;45684;48.358;10.746;2023-02-03T06:24:02;97300.66;;;4.95;100.00
10014;BME280;45684;48.358;10.746;2023-02-03T06:26:30;97293.66;;;4.94;100.00
10014;BME280;45684;48.358;10.746;2023-02-03T06:28:58;97282.66;;;4.91;100.00
10014;BME280;45684;48.358;10.746;2023-02-03T06:31:26;97283.78;;;4.95;100.00
10014;BME280;45684;48.358;10.746;2023-02-03T06:33:54;97284.53;;;4.90;100.00
10014;BME280;45684;48.358;10.746;2023-02-03T06:36:22;97282.91;;;4.89;100.00
10014;BME280;45684;48.358;10.746;2023-02-03T06:38:52;97285.28;;;4.85;100.00
10014;BME280;45684;48.358;10.746;2023-02-03T06:41:20;97290.13;;;4.89;100.00
10014;BME280;45684;48.358;10.746;2023-02-03T06:43:53;97303.75;;;4.82;100.00
10014;BME280;45684;48.358;10.746;2023-02-03T06:46:21;97316.88;;;4.83;100.00
10014;BME280;45684;48.358;10.746;2023-02-03T06:48:49;97323.31;;;4.82;100.00
10014;BME280;45684;48.358;10.746;2023-02-03T06:51:17;97315.53;;;4.81;100.00
10014;BME280;45684;48.358;10.746;2023-02-03T06:53:45;97321.69;;;4.81;100.00
10014;BME280;45684;48.358;10.746;2023-02-03T06:56:14;97308.84;;;4.83;100.00
10014;BME280;45684;48.358;10.746;2023-02-03T06:58:42;97307.28;;;4.88;100.00
10014;BME280;45684;48.358;10.746;2023-02-03T07:01:10;97306.22;;;4.89;100.00
10014;BME280;45684;48.358;10.746;2023-02-03T07:03:38;97295.44;;;4.83;100.00
10014;BME280;45684;48.358;10.746;2023-02-03T07:06:06;97290.06;;;4.83;100.00
10014;BME280;45684;48.358;10.746;2023-02-03T07:08:34;97293.56;;;4.84;100.00
10014;BME280;45684;48.358;10.746;2023-02-03T07:11:03;97292.25;;;4.86;100.00
10014;BME280;45684;48.358;10.746;2023-02-03T07:13:32;97286.34;;;4.84;100.00
10014;BME280;45684;48.358;10.746;2023-02-03T07:16:00;97277.00;;;4.87;100.00
10014;BME280;45684;48.358;10.746;2023-02-03T07:18:28;97273.78;;;4.85;100.00
10014;BME280;45684;48.358;10.746;2023-02-03T07:21:14;97257.16;;;4.88;100.00
10014;BME280;45684;48.358;10.746;2023-02-03T07:23:42;97261.22;;;4.91;100.00
10014;BME280;45684;48.358;10.746;2023-02-03T07:26:10;97257.22;;;4.93;100.00
10014;BME280;45684;48.358;10.746;2023-02-03T07:28:39;97257.53;;;4.97;100.00
10014;BME280;45684;48.358;10.746;2023-02-03T07:31:07;97263.69;;;4.97;100.00
10014;BME280;45684;48.358;10.746;2023-02-03T07:33:36;97268.56;;;5.00;100.00
10014;BME280;45684;48.358;10.746;2023-02-03T07:36:05;97264.19;;;4.94;100.00
10014;BME280;45684;48.358;10.746;2023-02-03T07:38:33;97258.34;;;4.97;100.00
10014;BME280;45684;48.358;10.746;2023-02-03T07:41:01;97243.31;;;4.96;100.00
10014;BME280;45684;48.358;10.746;2023-02-03T07:43:28;97244.97;;;5.02;100.00
10014;BME280;45684;48.358;10.746;2023-02-03T07:45:58;97248.22;;;5.04;100.00
10014;BME280;45684;48.358;10.746;2023-02-03T07:48:27;97258.69;;;5.06;100.00
10014;BME280;45684;48.358;10.746;2023-02-03T07:50:55;97264.91;;;5.11;100.00
10014;BME280;45684;48.358;10.746;2023-02-03T07:53:22;97271.38;;;5.16;100.00
10014;BME280;45684;48.358;10.746;2023-02-03T07:55:50;97264.13;;;5.16;100.00
10014;BME280;45684;48.358;10.746;2023-02-03T07:58:18;97261.22;;;5.18;100.00
10014;BME280;45684;48.358;10.746;2023-02-03T08:00:46;97258.31;;;5.24;100.00
10014;BME280;45684;48.358;10.746;2023-02-03T08:03:15;97269.09;;;5.29;100.00
10014;BME280;45684;48.358;10.746;2023-02-03T08:05:43;97290.00;;;5.27;100.00
10014;BME280;45684;48.358;10.746;2023-02-03T08:08:11;97284.91;;;5.31;100.00
10014;BME280;45684;48.358;10.746;2023-02-03T08:10:38;97288.16;;;5.33;100.00
10014;BME280;45684;48.358;10.746;2023-02-03T08:13:06;97290.91;;;5.38;100.00
10014;BME280;45684;48.358;10.746;2023-02-03T08:15:35;97297.38;;;5.42;100.00
10014;BME280;45684;48.358;10.746;2023-02-03T08:18:02;97311.84;;;5.41;100.00
10014;BME280;45684;48.358;10.746;2023-02-03T08:20:32;97319.94;;;5.46;100.00
10014;BME280;45684;48.358;10.746;2023-02-03T08:22:59;97315.38;;;5.47;100.00
10014;BME280;45684;48.358;10.746;2023-02-03T08:25:27;97312.94;;;5.45;100.00
10014;BME280;45684;48.358;10.746;2023-02-03T08:27:55;97306.78;;;5.45;100.00
10014;BME280;45684;48.358;10.746;2023-02-03T08:30:23;97300.09;;;5.47;100.00
10014;BME280;45684;48.358;10.746;2023-02-03T08:32:51;97302.50;;;5.49;100.00
10014;BME280;45684;48.358;10.746;2023-02-03T08:35:19;97302.81;;;5.52;100.00
10014;BME280;45684;48.358;10.746;2023-02-03T08:37:48;97286.22;;;5.55;100.00
10014;BME280;45684;48.358;10.746;2023-02-03T08:40:16;97289.44;;;5.57;100.00
10014;BME280;45684;48.358;10.746;2023-02-03T08:42:44;97279.56;;;5.63;100.00
10014;BME280;45684;48.358;10.746;2023-02-03T08:45:12;97291.13;;;5.69;100.00
10014;BME280;45684;48.358;10.746;2023-02-03T08:47:40;97294.69;;;5.74;100.00
10014;BME280;45684;48.358;10.746;2023-02-03T08:50:09;97292.03;;;5.79;100.00
10014;BME280;45684;48.358;10.746;2023-02-03T08:52:39;97285.34;;;5.82;100.00
10014;BME280;45684;48.358;10.746;2023-02-03T08:55:08;97282.41;;;5.83;100.00
10014;BME280;45684;48.358;10.746;2023-02-03T08:57:37;97279.19;;;5.86;100.00
10014;BME280;45684;48.358;10.746;2023-02-03T09:00:08;97277.88;;;5.89;100.00
10014;BME280;45684;48.358;10.746;2023-02-03T09:02:36;97278.94;;;5.88;100.00
10014;BME280;45684;48.358;10.746;2023-02-03T09:05:04;97279.75;;;5.88;100.00
10014;BME280;45684;48.358;10.746;2023-02-03T09:07:32;97282.75;;;5.92;100.00
10014;BME280;45684;48.358;10.746;2023-02-03T09:10:00;97290.28;;;5.95;100.00
10014;BME280;45684;48.358;10.746;2023-02-03T09:12:30;97303.75;;;6.00;100.00
10014;BME280;45684;48.358;10.746;2023-02-03T09:14:57;97306.97;;;5.97;100.00
10014;BME280;45684;48.358;10.746;2023-02-03T09:17:25;97298.97;;;6.07;100.00
10014;BME280;45684;48.358;10.746;2023-02-03T09:19:53;97299.47;;;6.04;100.00
10014;BME280;45684;48.358;10.746;2023-02-03T09:22:21;97302.72;;;6.06;100.00
10014;BME280;45684;48.358;10.746;2023-02-03T09:24:49;97282.88;;;6.07;100.00
10014;BME280;45684;48.358;10.746;2023-02-03T09:27:17;97274.84;;;6.12;100.00
10014;BME280;45684;48.358;10.746;2023-02-03T09:29:46;97279.16;;;6.19;100.00
10014;BME280;45684;48.358;10.746;2023-02-03T09:32:13;97274.59;;;6.19;100.00
10014;BME280;45684;48.358;10.746;2023-02-03T09:34:41;97274.31;;;6.16;100.00
10014;BME280;45684;48.358;10.746;2023-02-03T09:37:09;97267.91;;;6.22;100.00
10014;BME280;45684;48.358;10.746;2023-02-03T09:39:37;97268.97;;;6.21;100.00
10014;BME280;45684;48.358;10.746;2023-02-03T09:42:17;97282.16;;;6.27;100.00
10014;BME280;45684;48.358;10.746;2023-02-03T09:44:55;97280.56;;;6.26;100.00
10014;BME280;45684;48.358;10.746;2023-02-03T09:47:27;97278.66;;;6.22;100.00
10014;BME280;45684;48.358;10.746;2023-02-03T09:49:59;97274.38;;;6.26;100.00
10014;BME280;45684;48.358;10.746;2023-02-03T09:52:31;97281.34;;;6.27;100.00
10014;BME280;45684;48.358;10.746;2023-02-03T09:55:02;97278.09;;;6.20;100.00
10014;BME280;45684;48.358;10.746;2023-02-03T09:57:36;97278.38;;;6.23;100.00
10014;BME280;45684;48.358;10.746;2023-02-03T10:00:15;97280.25;;;6.23;100.00
10014;BME280;45684;48.358;10.746;2023-02-03T10:02:53;97278.66;;;6.22;100.00
10014;BME280;45684;48.358;10.746;2023-02-03T10:05:30;97275.47;;;6.30;100.00
10014;BME280;45684;48.358;10.746;2023-02-03T10:08:08;97270.63;;;6.27;100.00
10014;BME280;45684;48.358;10.746;2023-02-03T10:10:47;97283.00;;;6.33;100.00
10014;BME280;45684;48.358;10.746;2023-02-03T10:13:40;97269.56;;;6.33;100.00
10014;BME280;45684;48.358;10.746;2023-02-03T10:16:22;97242.19;;;6.36;100.00
10014;BME280;45684;48.358;10.746;2023-02-03T10:18:58;97260.47;;;6.39;100.00
10014;BME280;45684;48.358;10.746;2023-02-03T10:21:33;97265.53;;;6.30;100.00
10014;BME280;45684;48.358;10.746;2023-02-03T10:24:08;97258.31;;;6.36;100.00
10014;BME280;45684;48.358;10.746;2023-02-03T10:26:38;97253.47;;;6.38;100.00
10014;BME280;45684;48.358;10.746;2023-02-03T10:29:16;97270.38;;;6.33;100.00
10014;BME280;45684;48.358;10.746;2023-02-03T10:31:46;97267.47;;;6.45;100.00
10014;BME280;45684;48.358;10.746;2023-02-03T10:34:16;97255.13;;;6.44;100.00
10014;BME280;45684;48.358;10.746;2023-02-03T10:36:53;97239.03;;;6.49;100.00
10014;BME280;45684;48.358;10.746;2023-02-03T10:39:30;97264.28;;;6.53;100.00
10014;BME280;45684;48.358;10.746;2023-02-03T10:42:00;97259.44;;;6.50;100.00
10014;BME280;45684;48.358;10.746;2023-02-03T10:44:35;97256.25;;;6.58;100.00
10014;BME280;45684;48.358;10.746;2023-02-03T10:47:20;97259.19;;;6.57;100.00
10014;BME280;45684;48.358;10.746;2023-02-03T10:49:51;97257.03;;;6.54;100.00
10014;BME280;45684;48.358;10.746;2023-02-03T10:52:25;97278.22;;;6.45;100.00
10014;BME280;45684;48.358;10.746;2023-02-03T10:54:53;97274.75;;;6.50;100.00
10014;BME280;45684;48.358;10.746;2023-02-03T10:57:26;97272.59;;;6.52;100.00
10014;BME280;45684;48.358;10.746;2023-02-03T11:00:05;97261.03;;;6.51;100.00
10014;BME280;45684;48.358;10.746;2023-02-03T11:02:35;97270.19;;;6.50;100.00
10014;BME280;45684;48.358;10.746;2023-02-03T11:05:18;97269.13;;;6.56;100.00
10014;BME280;45684;48.358;10.746;2023-02-03T11:07:47;97258.91;;;6.53;100.00
10014;BME280;45684;48.358;10.746;2023-02-03T11:10:32;97250.88;;;6.63;100.00
10014;BME280;45684;48.358;10.746;2023-02-03T11:13:25;97247.91;;;6.60;100.00
10014;BME280;45684;48.358;10.746;2023-02-03T11:15:56;97234.75;;;6.58;100.00
10014;BME280;45684;48.358;10.746;2023-02-03T11:18:46;97235.84;;;6.62;100.00
10014;BME280;45684;48.358;10.746;2023-02-03T11:21:16;97248.22;;;6.69;100.00
10014;BME280;45684;48.358;10.746;2023-02-03T11:23:53;97251.19;;;6.77;100.00
10014;BME280;45684;48.358;10.746;2023-02-03T11:26:26;97253.63;;;6.84;100.00
10014;BME280;45684;48.358;10.746;2023-02-03T11:28:59;97248.00;;;6.90;100.00
10014;BME280;45684;48.358;10.746;2023-02-03T11:31:29;97233.22;;;7.03;100.00
10014;BME280;45684;48.358;10.746;2023-02-03T11:34:02;97226.25;;;7.12;100.00
10014;BME280;45684;48.358;10.746;2023-02-03T11:36:33;97211.47;;;7.10;100.00
10014;BME280;45684;48.358;10.746;2023-02-03T11:39:15;97189.94;;;7.20;100.00
10014;BME280;45684;48.358;10.746;2023-02-03T11:41:44;97194.53;;;7.09;100.00
10014;BME280;45684;48.358;10.746;2023-02-03T11:44:17;97189.16;;;7.14;100.00
10014;BME280;45684;48.358;10.746;2023-02-03T11:46:46;97180.00;;;7.21;100.00
10014;BME280;45684;48.358;10.746;2023-02-03T11:55:19;97202.88;;;7.38;100.00
10014;BME280;45684;48.358;10.746;2023-02-03T11:57:57;97190.50;;;7.43;100.00
10014;BME280;45684;48.358;10.746;2023-02-03T12:00:39;97186.44;;;7.40;100.00
10014;BME280;45684;48.358;10.746;2023-02-03T12:03:35;97201.50;;;7.41;100.00
10014;BME280;45684;48.358;10.746;2023-02-03T12:06:23;97183.22;;;7.38;100.00
10014;BME280;45684;48.358;10.746;2023-02-03T12:09:04;97185.13;;;7.32;100.00
10014;BME280;45684;48.358;10.746;2023-02-03T12:11:44;97178.38;;;7.35;100.00
10014;BME280;45684;48.358;10.746;2023-02-03T12:14:30;97179.97;;;7.36;100.00
10014;BME280;45684;48.358;10.746;2023-02-03T12:17:26;97179.97;;;7.36;100.00
10014;BME280;45684;48.358;10.746;2023-02-03T12:20:15;97170.84;;;7.37;100.00
10014;BME280;45684;48.358;10.746;2023-02-03T12:22:58;97157.38;;;7.32;100.00
10014;BME280;45684;48.358;10.746;2023-02-03T12:25:37;97141.22;;;7.32;100.00
10014;BME280;45684;48.358;10.746;2023-02-03T12:28:18;97132.63;;;7.40;100.00
10014;BME280;45684;48.358;10.746;2023-02-03T12:31:03;97134.22;;;7.41;100.00
10014;BME280;45684;48.358;10.746;2023-02-03T12:33:39;97131.56;;;7.46;100.00
10014;BME280;45684;48.358;10.746;2023-02-03T12:36:12;97124.28;;;7.47;100.00
10014;BME280;45684;48.358;10.746;2023-02-03T12:38:47;97106.25;;;7.47;100.00
10014;BME280;45684;48.358;10.746;2023-02-03T12:41:20;97100.31;;;7.50;100.00
10014;BME280;45684;48.358;10.746;2023-02-03T12:43:52;97092.22;;;7.60;100.00
10014;BME280;45684;48.358;10.746;2023-02-03T12:46:25;97083.88;;;7.62;100.00
10014;BME280;45684;48.358;10.746;2023-02-03T12:48:58;97076.28;;;7.69;100.00
10014;BME280;45684;48.358;10.746;2023-02-03T12:51:33;97072.50;;;7.75;100.00
10014;BME280;45684;48.358;10.746;2023-02-03T12:54:22;97062.28;;;7.72;100.00
10014;BME280;45684;48.358;10.746;2023-02-03T12:56:54;97070.06;;;7.74;100.00
10014;BME280;45684;48.358;10.746;2023-02-03T12:59:25;97067.38;;;7.74;100.00
10014;BME280;45684;48.358;10.746;2023-02-03T13:01:58;97065.28;;;7.65;100.00
10014;BME280;45684;48.358;10.746;2023-02-03T13:04:32;97052.63;;;7.66;100.00
10014;BME280;45684;48.358;10.746;2023-02-03T13:07:07;97064.78;;;7.53;100.00
10014;BME280;45684;48.358;10.746;2023-02-03T13:09:47;97053.22;;;7.48;100.00
10014;BME280;45684;48.358;10.746;2023-02-03T13:12:25;97052.41;;;7.52;100.00
10014;BME280;45684;48.358;10.746;2023-02-03T13:15:02;97062.88;;;7.59;100.00
10014;BME280;45684;48.358;10.746;2023-02-03T13:17:39;97063.66;;;7.59;100.00
10014;BME280;45684;48.358;10.746;2023-02-03T13:20:16;97071.50;;;7.56;100.00
10014;BME280;45684;48.358;10.746;2023-02-03T13:22:45;97053.47;;;7.56;100.00